Time;durP1;ratioP1;P1;durP2;ratioP2;P2;SDS_P1;SDS_P2;PMS_P1;PMS_P2;Temp;Humidity;BMP_temperature;BMP_pressure;BME280_temperature;BME280_humidity;BME280_pressure;Samples;Min_cycle;Max_cycle;Signal;HPM_P1;HPM_P2
2021/03/10 00:01:31;;;;;;;27.10;20.00;;;5.20;99.90;;;;;;4992727;28;20269;-69
2021/03/10 00:03:56;;;;;;;27.93;20.20;;;5.10;99.90;;;;;;4992052;28;20578;-68
2021/03/10 00:06:22;;;;;;;29.07;20.90;;;5.00;99.90;;;;;;4992806;28;20551;-68
2021/03/10 00:08:47;;;;;;;25.83;19.47;;;4.90;99.90;;;;;;4993080;28;20310;-68
2021/03/10 00:11:13;;;;;;;25.20;21.57;;;4.90;99.90;;;;;;4991580;28;20203;-69
2021/03/10 00:13:38;;;;;;;35.23;23.37;;;4.70;99.90;;;;;;4992706;28;20184;-69
2021/03/10 00:16:04;;;;;;;30.90;22.50;;;4.60;99.90;;;;;;4992993;28;20175;-68
2021/03/10 00:18:30;;;;;;;31.23;22.47;;;4.60;99.90;;;;;;4992524;28;20207;-68
2021/03/10 00:20:55;;;;;;;40.70;24.07;;;4.60;99.90;;;;;;4992187;28;20454;-68
2021/03/10 00:23:21;;;;;;;35.60;25.13;;;4.60;99.90;;;;;;4992404;28;20176;-68
2021/03/10 00:25:46;;;;;;;30.33;23.43;;;4.60;99.90;;;;;;4992546;28;20676;-69
2021/03/10 00:28:12;;;;;;;36.40;23.70;;;4.50;99.90;;;;;;4992436;28;20657;-69
2021/03/10 00:30:37;;;;;;;35.27;23.83;;;4.50;99.90;;;;;;4992335;28;20732;-69
2021/03/10 00:33:03;;;;;;;36.70;25.60;;;4.40;99.90;;;;;;4992868;28;20595;-68
2021/03/10 00:35:29;;;;;;;35.00;24.27;;;4.30;99.90;;;;;;4992065;28;20716;-69
2021/03/10 00:37:55;;;;;;;35.93;25.70;;;4.30;99.90;;;;;;4992232;28;20203;-69
2021/03/10 00:40:20;;;;;;;37.93;26.60;;;4.30;99.90;;;;;;4992065;28;20470;-69
2021/03/10 00:42:46;;;;;;;39.70;25.90;;;4.30;99.90;;;;;;4992330;28;20183;-69
2021/03/10 00:45:12;;;;;;;33.40;24.83;;;4.30;99.90;;;;;;4992288;28;20175;-69
2021/03/10 00:47:37;;;;;;;38.93;25.50;;;4.40;99.90;;;;;;4992125;28;20184;-69
2021/03/10 00:50:03;;;;;;;35.83;26.77;;;4.40;99.90;;;;;;4990582;28;20944;-69
2021/03/10 00:52:29;;;;;;;33.63;23.40;;;4.40;99.90;;;;;;4991758;28;20223;-68
2021/03/10 00:54:54;;;;;;;33.23;24.57;;;4.40;99.90;;;;;;4991916;28;20940;-69
2021/03/10 00:57:20;;;;;;;33.73;25.60;;;4.50;99.90;;;;;;4991763;28;20257;-68
2021/03/10 00:59:45;;;;;;;30.60;23.53;;;4.50;99.90;;;;;;4991994;28;20237;-69
2021/03/10 01:02:11;;;;;;;33.27;24.87;;;4.50;99.90;;;;;;4991230;28;20175;-69
2021/03/10 01:04:36;;;;;;;37.00;25.77;;;4.50;99.90;;;;;;4991900;28;20215;-68
2021/03/10 01:07:02;;;;;;;33.30;24.47;;;4.50;99.90;;;;;;4991707;28;20191;-68
2021/03/10 01:09:27;;;;;;;35.43;24.67;;;4.50;99.90;;;;;;4991842;28;20740;-68
2021/03/10 01:11:53;;;;;;;33.77;23.97;;;4.50;99.90;;;;;;4991816;28;20282;-68
2021/03/10 01:14:19;;;;;;;39.00;25.37;;;4.50;99.90;;;;;;4991082;28;20183;-68
2021/03/10 01:16:44;;;;;;;38.90;25.57;;;4.50;99.90;;;;;;4991493;28;20207;-69
2021/03/10 01:19:10;;;;;;;36.87;25.53;;;4.60;99.90;;;;;;4991665;28;20172;-68
2021/03/10 01:21:35;;;;;;;37.97;25.97;;;4.60;99.90;;;;;;4991342;28;20198;-68
2021/03/10 01:24:01;;;;;;;36.90;25.57;;;4.60;99.90;;;;;;4991041;28;20275;-68
2021/03/10 01:26:27;;;;;;;36.07;24.97;;;4.70;99.90;;;;;;4991724;28;20226;-68
2021/03/10 01:28:52;;;;;;;35.20;25.00;;;4.70;99.90;;;;;;4991750;28;20206;-68
2021/03/10 01:31:18;;;;;;;41.50;25.97;;;4.80;99.90;;;;;;4991322;28;20261;-68
2021/03/10 01:33:43;;;;;;;38.73;25.57;;;4.80;99.90;;;;;;4991267;28;20184;-68
2021/03/10 01:36:09;;;;;;;35.67;27.03;;;4.80;99.90;;;;;;4991353;28;20202;-69
2021/03/10 01:38:34;;;;;;;39.50;28.00;;;4.70;99.90;;;;;;4991393;28;20716;-68
2021/03/10 01:41:00;;;;;;;37.67;25.60;;;4.60;99.90;;;;;;4991475;28;20237;-68
2021/03/10 01:43:25;;;;;;;44.13;28.17;;;4.50;99.90;;;;;;4991075;28;20657;-69
2021/03/10 01:45:51;;;;;;;42.53;25.90;;;4.40;99.90;;;;;;4991207;28;20178;-69
2021/03/10 01:48:20;;;;;;;38.50;28.07;;;4.30;99.90;;;;;;4990849;28;20195;-68
2021/03/10 01:50:46;;;;;;;38.03;25.07;;;4.20;99.90;;;;;;4991329;28;20192;-68
2021/03/10 01:53:12;;;;;;;38.37;26.97;;;4.20;99.90;;;;;;4991256;28;20450;-68
2021/03/10 01:55:37;;;;;;;36.07;27.67;;;4.10;99.90;;;;;;4991329;28;20183;-69
2021/03/10 01:58:03;;;;;;;39.20;27.30;;;4.00;99.90;;;;;;4991390;28;20206;-69
2021/03/10 02:00:29;;;;;;;41.57;26.73;;;4.00;99.90;;;;;;4990511;28;20592;-69
2021/03/10 02:02:55;;;;;;;38.50;27.70;;;4.00;99.90;;;;;;4990565;28;20168;-69
2021/03/10 02:05:23;;;;;;;40.27;27.10;;;3.90;99.90;;;;;;4989912;28;20426;-68
2021/03/10 02:07:57;;;;;;;40.50;27.20;;;3.90;99.90;;;;;;4990927;28;20518;-68
2021/03/10 02:10:48;;;;;;;40.17;27.83;;;3.90;99.90;;;;;;4990643;28;20559;-68
2021/03/10 02:13:36;;;;;;;37.20;24.80;;;3.90;99.90;;;;;;4990549;28;20429;-68
2021/03/10 02:16:11;;;;;;;37.47;26.53;;;3.90;99.90;;;;;;4989638;28;20975;-69
2021/03/10 02:18:44;;;;;;;40.87;27.03;;;3.80;99.90;;;;;;4990264;28;20469;-68
2021/03/10 02:21:37;;;;;;;42.17;26.63;;;3.90;99.90;;;;;;4990455;28;20520;-68
2021/03/10 02:24:24;;;;;;;41.47;26.03;;;3.80;99.90;;;;;;4987576;28;20916;-68
2021/03/10 02:27:15;;;;;;;36.20;26.10;;;3.70;99.90;;;;;;4978373;28;20513;-69
2021/03/10 02:29:41;;;;;;;41.87;26.73;;;3.80;99.90;;;;;;4990594;28;20508;-69
2021/03/10 02:32:07;;;;;;;44.53;27.00;;;3.70;99.90;;;;;;4989891;28;20454;-69
2021/03/10 02:34:33;;;;;;;37.70;26.20;;;3.70;99.90;;;;;;4990228;28;20839;-69
2021/03/10 02:37:01;;;;;;;40.27;27.87;;;3.70;99.90;;;;;;4990512;28;20469;-68
2021/03/10 02:39:27;;;;;;;36.60;25.43;;;3.70;99.90;;;;;;4990692;28;20496;-69
2021/03/10 02:41:53;;;;;;;41.00;27.13;;;3.70;99.90;;;;;;4991018;28;20454;-68
2021/03/10 02:44:22;;;;;;;36.47;26.43;;;3.80;99.90;;;;;;4990439;28;20587;-68
2021/03/10 02:46:47;;;;;;;40.23;27.60;;;3.80;99.90;;;;;;4990205;28;20514;-68
2021/03/10 02:49:14;;;;;;;37.77;26.63;;;3.80;99.90;;;;;;4990604;28;20530;-68
2021/03/10 02:51:41;;;;;;;39.67;25.50;;;3.90;99.90;;;;;;4990269;28;20362;-68
2021/03/10 02:54:07;;;;;;;38.40;26.17;;;3.90;99.90;;;;;;4990120;28;20434;-68
2021/03/10 02:56:32;;;;;;;45.40;28.60;;;4.00;99.90;;;;;;4990258;28;20805;-68
2021/03/10 02:58:59;;;;;;;43.93;28.03;;;4.10;99.90;;;;;;4990336;28;20191;-68
2021/03/10 03:01:24;;;;;;;38.80;27.93;;;4.10;99.90;;;;;;4990072;28;20206;-68
2021/03/10 03:03:50;;;;;;;41.27;28.30;;;4.10;99.90;;;;;;4990285;28;20426;-68
2021/03/10 03:06:15;;;;;;;39.60;26.63;;;4.20;99.90;;;;;;4990175;28;20171;-68
2021/03/10 03:08:41;;;;;;;42.97;28.80;;;4.20;99.90;;;;;;4990312;28;20184;-68
2021/03/10 03:11:07;;;;;;;39.17;27.00;;;4.20;99.90;;;;;;4990234;28;20199;-68
2021/03/10 03:13:34;;;;;;;38.97;28.10;;;4.20;99.90;;;;;;4989560;28;20237;-68
2021/03/10 03:16:01;;;;;;;40.27;26.93;;;4.20;99.90;;;;;;4991667;28;20438;-68
2021/03/10 03:18:27;;;;;;;43.90;28.80;;;4.30;99.90;;;;;;4993845;28;20466;-68
2021/03/10 03:20:54;;;;;;;41.17;27.10;;;4.30;99.90;;;;;;4993895;28;21150;-68
2021/03/10 03:23:20;;;;;;;38.93;30.20;;;4.30;99.90;;;;;;4993403;28;20430;-68
2021/03/10 03:25:49;;;;;;;46.33;27.70;;;4.30;99.90;;;;;;4993796;28;20857;-68
2021/03/10 03:28:20;;;;;;;45.70;29.50;;;4.30;99.90;;;;;;4993872;28;20446;-68
2021/03/10 03:30:47;;;;;;;42.37;27.50;;;4.30;99.90;;;;;;4994107;28;20438;-68
2021/03/10 03:33:28;;;;;;;43.67;29.60;;;4.30;99.90;;;;;;4993541;28;20434;-68
2021/03/10 03:35:55;;;;;;;45.80;29.17;;;4.20;99.90;;;;;;4994032;28;20441;-68
2021/03/10 03:38:24;;;;;;;43.60;29.10;;;4.20;99.90;;;;;;4993089;28;20466;-68
2021/03/10 03:40:52;;;;;;;47.37;28.40;;;4.20;99.90;;;;;;4993472;28;20473;-68
2021/03/10 03:43:18;;;;;;;44.83;30.53;;;4.20;99.90;;;;;;4993432;28;20434;-68
2021/03/10 03:45:45;;;;;;;48.80;30.93;;;4.20;99.90;;;;;;4993330;28;20430;-68
2021/03/10 03:48:11;;;;;;;50.50;31.80;;;4.20;99.90;;;;;;4993333;28;20427;-68
2021/03/10 03:50:39;;;;;;;46.70;30.27;;;4.10;99.90;;;;;;4992829;28;20454;-68
2021/03/10 03:53:04;;;;;;;49.80;28.80;;;4.10;99.90;;;;;;4993150;28;21098;-68
2021/03/10 03:55:30;;;;;;;46.73;30.47;;;4.10;99.90;;;;;;4992785;28;20525;-68
2021/03/10 03:57:55;;;;;;;39.90;27.77;;;4.10;99.90;;;;;;4992767;28;20198;-68
2021/03/10 04:00:25;;;;;;;42.93;30.23;;;4.10;99.90;;;;;;4992898;28;20203;-68
2021/03/10 04:02:51;;;;;;;43.57;29.70;;;4.10;99.90;;;;;;4993260;28;20183;-68
2021/03/10 04:05:17;;;;;;;43.43;29.13;;;4.00;99.90;;;;;;4992670;28;20434;-68
2021/03/10 04:07:51;;;;;;;48.47;30.10;;;4.00;99.90;;;;;;4993031;28;20250;-68
2021/03/10 04:10:17;;;;;;;53.87;31.57;;;4.00;99.90;;;;;;4993045;28;20486;-68
2021/03/10 04:12:43;;;;;;;40.87;27.77;;;4.00;99.90;;;;;;4993153;28;20929;-68
2021/03/10 04:15:11;;;;;;;53.50;29.37;;;4.00;99.90;;;;;;4992545;28;20443;-68
2021/03/10 04:17:37;;;;;;;46.20;30.30;;;4.00;99.90;;;;;;4992465;28;20513;-68
2021/03/10 04:20:10;;;;;;;47.07;30.27;;;4.00;99.90;;;;;;4991646;28;20833;-68
2021/03/10 04:22:36;;;;;;;43.50;29.70;;;4.00;99.90;;;;;;4992890;28;20230;-68
2021/03/10 04:25:01;;;;;;;44.50;28.17;;;4.00;99.90;;;;;;4991957;28;20835;-68
2021/03/10 04:27:27;;;;;;;48.93;30.83;;;4.00;99.90;;;;;;4992192;28;20215;-68
2021/03/10 04:29:52;;;;;;;44.77;29.40;;;4.00;99.90;;;;;;4992502;28;20653;-68
2021/03/10 04:32:18;;;;;;;44.77;30.17;;;4.00;99.90;;;;;;4992276;28;20183;-68
2021/03/10 04:34:44;;;;;;;48.27;29.90;;;4.00;99.90;;;;;;4985447;28;20182;-68
2021/03/10 04:37:09;;;;;;;41.07;29.87;;;4.10;99.90;;;;;;4992566;28;20613;-68
2021/03/10 04:39:35;;;;;;;46.60;29.33;;;4.10;99.90;;;;;;4992176;28;20226;-68
2021/03/10 04:42:00;;;;;;;47.20;31.97;;;4.10;99.90;;;;;;4992341;28;20195;-68
2021/03/10 04:44:26;;;;;;;40.57;30.70;;;4.00;99.90;;;;;;4991417;28;20645;-67
2021/03/10 04:46:52;;;;;;;46.17;31.07;;;4.00;99.90;;;;;;4992343;28;20525;-68
2021/03/10 04:49:17;;;;;;;46.70;31.47;;;3.90;99.90;;;;;;4992334;28;20274;-67
2021/03/10 04:51:43;;;;;;;37.50;28.07;;;3.90;99.90;;;;;;4991938;28;20203;-68
2021/03/10 04:54:09;;;;;;;42.13;29.20;;;3.90;99.90;;;;;;4991612;28;20188;-68
2021/03/10 04:56:34;;;;;;;44.00;29.60;;;3.90;99.90;;;;;;4992137;28;20183;-68
2021/03/10 04:59:00;;;;;;;42.50;28.47;;;4.00;99.90;;;;;;4991900;28;20785;-68
2021/03/10 05:01:25;;;;;;;39.50;29.00;;;3.90;99.90;;;;;;4990652;28;20195;-68
2021/03/10 05:03:51;;;;;;;44.13;31.33;;;3.90;99.90;;;;;;4991433;28;20188;-68
2021/03/10 05:06:16;;;;;;;48.33;30.43;;;3.90;99.90;;;;;;4992304;28;20314;-68
2021/03/10 05:08:42;;;;;;;51.33;32.00;;;3.90;99.90;;;;;;4991643;28;20187;-68
2021/03/10 05:11:07;;;;;;;43.33;28.40;;;3.80;99.90;;;;;;4991641;28;20231;-68
2021/03/10 05:13:33;;;;;;;45.57;29.93;;;3.80;99.90;;;;;;4991502;28;20321;-68
2021/03/10 05:15:58;;;;;;;48.27;31.00;;;3.80;99.90;;;;;;4991408;28;20518;-68
2021/03/10 05:18:24;;;;;;;43.70;29.83;;;3.80;99.90;;;;;;4991418;28;20207;-68
2021/03/10 05:20:49;;;;;;;43.93;30.57;;;3.90;99.90;;;;;;4991370;28;20191;-68
2021/03/10 05:23:15;;;;;;;42.53;29.30;;;3.90;99.90;;;;;;4991399;28;20171;-68
2021/03/10 05:25:40;;;;;;;43.67;29.63;;;3.90;99.90;;;;;;4991316;28;20179;-68
2021/03/10 05:28:06;;;;;;;42.40;29.13;;;3.90;99.90;;;;;;4991515;28;20195;-68
2021/03/10 05:30:31;;;;;;;46.17;29.03;;;3.90;99.90;;;;;;4991204;28;20211;-68
2021/03/10 05:32:57;;;;;;;44.77;30.00;;;4.00;99.90;;;;;;4991414;28;20183;-68
2021/03/10 05:35:22;;;;;;;41.17;29.00;;;4.10;99.90;;;;;;4991288;28;20657;-68
2021/03/10 05:37:48;;;;;;;47.20;30.83;;;4.20;99.90;;;;;;4991046;28;20202;-68
2021/03/10 05:40:15;;;;;;;46.27;33.07;;;4.20;99.90;;;;;;4989863;28;20701;-68
2021/03/10 05:42:41;;;;;;;44.03;27.83;;;4.20;99.90;;;;;;5006470;28;20266;-68
2021/03/10 05:45:09;;;;;;;40.17;27.70;;;4.30;99.90;;;;;;4990950;28;20427;-68
2021/03/10 05:47:34;;;;;;;40.07;26.97;;;4.30;99.90;;;;;;4991519;28;20434;-68
2021/03/10 05:50:00;;;;;;;41.07;28.80;;;4.30;99.90;;;;;;4990852;28;20434;-68
2021/03/10 05:52:26;;;;;;;45.33;29.47;;;4.30;99.90;;;;;;4990602;28;20625;-68
2021/03/10 05:54:54;;;;;;;44.07;28.33;;;4.30;99.90;;;;;;4990791;28;20189;-68
2021/03/10 05:57:19;;;;;;;45.80;30.67;;;4.20;99.90;;;;;;4990852;28;20817;-68
2021/03/10 05:59:45;;;;;;;52.00;33.63;;;4.30;99.90;;;;;;4988167;28;20519;-68
2021/03/10 06:02:10;;;;;;;43.93;28.50;;;4.30;99.90;;;;;;4990721;28;20201;-68
2021/03/10 06:04:37;;;;;;;46.40;29.57;;;4.20;99.90;;;;;;4990944;28;20187;-68
2021/03/10 06:07:03;;;;;;;45.17;29.37;;;4.20;99.90;;;;;;4992998;28;20179;-68
2021/03/10 06:09:29;;;;;;;48.40;32.20;;;4.20;99.90;;;;;;4995503;28;20776;-68
2021/03/10 06:11:58;;;;;;;52.33;32.53;;;4.20;99.90;;;;;;4997070;28;20198;-68
2021/03/10 06:14:25;;;;;;;43.50;30.73;;;4.20;99.90;;;;;;4990842;28;20183;-68
2021/03/10 06:17:09;;;;;;;43.67;29.80;;;4.20;99.90;;;;;;4990963;28;21068;-68
2021/03/10 06:19:47;;;;;;;45.70;29.83;;;4.30;99.90;;;;;;4990912;28;20521;-68
2021/03/10 06:22:14;;;;;;;45.00;30.63;;;4.30;99.90;;;;;;4984884;28;20430;-68
2021/03/10 06:24:40;;;;;;;46.60;31.50;;;4.30;99.90;;;;;;4991569;28;20434;-68
2021/03/10 06:27:06;;;;;;;43.27;28.60;;;4.40;99.90;;;;;;4990793;28;20805;-68
2021/03/10 06:29:32;;;;;;;45.30;31.00;;;4.40;99.90;;;;;;4992516;28;20186;-68
2021/03/10 06:32:08;;;;;;;47.43;32.37;;;4.50;99.90;;;;;;4991086;28;20451;-68
2021/03/10 06:34:44;;;;;;;43.93;29.30;;;4.50;99.90;;;;;;4990411;28;20175;-68
2021/03/10 06:37:25;;;;;;;45.50;29.47;;;4.60;99.90;;;;;;4993651;28;20822;-68
2021/03/10 06:39:50;;;;;;;44.50;28.90;;;4.60;99.90;;;;;;4995569;28;20979;-68
2021/03/10 06:42:18;;;;;;;43.73;29.30;;;4.60;99.90;;;;;;4993565;28;20469;-68
2021/03/10 06:44:56;;;;;;;38.90;27.73;;;4.60;99.90;;;;;;4993972;28;20176;-68
2021/03/10 06:47:21;;;;;;;46.23;29.43;;;4.70;99.90;;;;;;4997104;28;20448;-68
2021/03/10 06:49:53;;;;;;;46.73;29.43;;;4.70;99.90;;;;;;4995025;28;20442;-68
2021/03/10 06:52:19;;;;;;;42.93;28.90;;;4.70;99.90;;;;;;5005367;28;20187;-68
2021/03/10 06:54:55;;;;;;;43.17;29.20;;;4.80;99.90;;;;;;4997726;28;20458;-68
2021/03/10 06:57:21;;;;;;;44.03;29.53;;;4.70;99.90;;;;;;4998398;28;20214;-68
2021/03/10 06:59:52;;;;;;;40.77;28.80;;;4.70;99.90;;;;;;5007298;28;20438;-68
2021/03/10 07:02:30;;;;;;;38.80;27.93;;;4.80;99.90;;;;;;5002076;28;20444;-68
2021/03/10 07:05:00;;;;;;;46.20;29.30;;;4.80;99.90;;;;;;5005553;28;20435;-68
2021/03/10 07:07:30;;;;;;;45.80;30.47;;;4.80;99.90;;;;;;5000185;28;20432;-68
2021/03/10 07:09:56;;;;;;;41.20;26.80;;;4.90;99.90;;;;;;4993246;28;20434;-68
2021/03/10 07:12:25;;;;;;;40.53;28.57;;;4.90;99.90;;;;;;4993512;28;20431;-68
2021/03/10 07:14:52;;;;;;;43.33;28.87;;;4.90;99.90;;;;;;4993847;28;20453;-68
2021/03/10 07:17:20;;;;;;;40.37;28.67;;;5.00;99.90;;;;;;4993838;28;20569;-68
2021/03/10 07:19:47;;;;;;;44.30;28.47;;;5.00;99.90;;;;;;4993437;28;20521;-68
2021/03/10 07:22:19;;;;;;;42.77;27.30;;;5.10;99.90;;;;;;4993735;28;20920;-68
2021/03/10 07:24:50;;;;;;;44.60;27.67;;;5.20;99.90;;;;;;4993108;28;20596;-68
2021/03/10 07:27:19;;;;;;;44.60;29.63;;;5.20;99.90;;;;;;4993033;28;20433;-67
2021/03/10 07:29:44;;;;;;;40.80;27.63;;;5.20;99.90;;;;;;4993799;28;20438;-70
2021/03/10 07:32:10;;;;;;;42.10;27.07;;;5.30;99.90;;;;;;4993585;28;20457;-67
2021/03/10 07:34:37;;;;;;;38.93;26.43;;;5.40;99.90;;;;;;4992950;28;20821;-68
2021/03/10 07:37:13;;;;;;;42.43;28.13;;;5.60;99.90;;;;;;4993161;28;20319;-67
2021/03/10 07:39:39;;;;;;;39.93;29.73;;;5.60;99.90;;;;;;4993643;28;20430;-67
2021/03/10 07:42:09;;;;;;;39.13;28.37;;;5.60;99.90;;;;;;4991573;28;20461;-68
2021/03/10 07:44:34;;;;;;;40.53;28.67;;;5.60;99.90;;;;;;4992463;28;20430;-68
2021/03/10 07:47:09;;;;;;;41.83;28.37;;;5.70;99.90;;;;;;4993255;28;20584;-68
2021/03/10 07:49:36;;;;;;;32.73;26.30;;;5.70;99.90;;;;;;5006114;28;20179;-67
2021/03/10 07:52:09;;;;;;;42.33;28.03;;;5.70;99.90;;;;;;4993466;28;20458;-67
2021/03/10 07:54:36;;;;;;;45.23;28.10;;;5.60;99.90;;;;;;4992702;28;20538;-68
2021/03/10 07:57:09;;;;;;;42.70;27.23;;;5.70;99.90;;;;;;4992829;28;20936;-68
2021/03/10 07:59:36;;;;;;;42.43;27.50;;;5.80;99.90;;;;;;4992706;28;20465;-67
2021/03/10 08:02:04;;;;;;;40.87;29.03;;;5.90;99.90;;;;;;4991990;28;21061;-68
2021/03/10 08:04:30;;;;;;;41.83;28.27;;;5.90;99.90;;;;;;4992740;28;20431;-67
2021/03/10 08:06:55;;;;;;;47.53;32.60;;;5.90;99.90;;;;;;4993129;28;20434;-68
2021/03/10 08:09:23;;;;;;;40.20;28.47;;;6.00;99.90;;;;;;4993068;28;20274;-68
2021/03/10 08:12:02;;;;;;;39.07;28.10;;;6.00;99.90;;;;;;4992948;28;20661;-68
2021/03/10 08:14:40;;;;;;;41.83;29.03;;;6.10;99.90;;;;;;4992725;28;20465;-68
2021/03/10 08:17:07;;;;;;;41.43;30.03;;;6.20;99.90;;;;;;4992203;28;20466;-68
2021/03/10 08:19:33;;;;;;;40.80;29.17;;;6.30;99.90;;;;;;4993033;28;20426;-68
2021/03/10 08:21:59;;;;;;;39.97;26.17;;;6.50;99.90;;;;;;4992853;28;20489;-68
2021/03/10 08:24:26;;;;;;;41.07;30.60;;;6.70;99.90;;;;;;4991832;28;20463;-67
2021/03/10 08:26:57;;;;;;;40.40;29.10;;;6.80;99.90;;;;;;4991285;28;20160;-68
2021/03/10 08:29:23;;;;;;;42.57;29.57;;;6.80;99.90;;;;;;4992024;28;20797;-67
2021/03/10 08:31:50;;;;;;;44.00;28.17;;;6.90;99.90;;;;;;4992496;28;20455;-67
2021/03/10 08:34:27;;;;;;;34.73;26.40;;;6.90;99.90;;;;;;4989988;28;20435;-68
2021/03/10 08:36:53;;;;;;;41.13;28.50;;;7.00;99.90;;;;;;4992055;28;20804;-68
2021/03/10 08:39:19;;;;;;;36.50;27.20;;;7.10;99.90;;;;;;4992263;28;20430;-68
2021/03/10 08:41:49;;;;;;;39.67;28.10;;;7.20;99.90;;;;;;4992207;28;20582;-68
2021/03/10 08:44:18;;;;;;;39.33;27.90;;;7.30;99.90;;;;;;4991796;28;20180;-68
2021/03/10 08:46:45;;;;;;;39.83;26.17;;;7.40;99.90;;;;;;4991519;28;20426;-68
2021/03/10 08:49:27;;;;;;;36.50;26.90;;;7.40;99.90;;;;;;4991443;28;20940;-68
2021/03/10 08:52:09;;;;;;;40.80;29.17;;;7.50;99.90;;;;;;4991580;28;20449;-68
2021/03/10 08:54:57;;;;;;;36.90;26.30;;;7.80;99.90;;;;;;4986250;28;20789;-68
2021/03/10 08:57:24;;;;;;;38.00;28.23;;;8.20;99.90;;;;;;4991697;28;20466;-68
2021/03/10 08:59:50;;;;;;;33.93;25.50;;;8.90;99.90;;;;;;4992115;28;20442;-68
2021/03/10 09:02:24;;;;;;;35.57;25.60;;;9.70;99.90;;;;;;4991621;28;20423;-68
2021/03/10 09:04:50;;;;;;;39.00;27.47;;;9.80;99.90;;;;;;4991600;28;20426;-68
2021/03/10 09:07:19;;;;;;;35.80;26.50;;;9.80;99.90;;;;;;4991989;28;20441;-68
2021/03/10 09:09:46;;;;;;;32.10;24.97;;;10.00;99.90;;;;;;4991392;28;20176;-68
2021/03/10 09:12:13;;;;;;;30.47;23.43;;;9.90;99.90;;;;;;4991418;28;20492;-69
2021/03/10 09:14:40;;;;;;;31.43;23.23;;;9.70;99.90;;;;;;4991363;28;20467;-68
2021/03/10 09:17:05;;;;;;;33.20;25.03;;;9.60;99.90;;;;;;4992111;28;20468;-68
2021/03/10 09:19:39;;;;;;;29.90;24.33;;;9.40;99.90;;;;;;4991479;28;20426;-68
2021/03/10 09:22:10;;;;;;;30.60;24.37;;;9.60;99.90;;;;;;4991989;28;20286;-68
2021/03/10 09:25:08;;;;;;;31.70;26.10;;;9.60;99.90;;;;;;4990969;28;20944;-68
2021/03/10 09:27:34;;;;;;;33.80;25.63;;;9.40;99.90;;;;;;4974908;28;20445;-68
2021/03/10 09:30:05;;;;;;;33.83;25.47;;;9.20;99.90;;;;;;4991082;28;20940;-68
2021/03/10 09:32:41;;;;;;;29.83;24.70;;;9.30;99.90;;;;;;4990881;28;20201;-68
2021/03/10 09:35:12;;;;;;;32.00;25.17;;;9.30;99.90;;;;;;4991052;28;20435;-68
2021/03/10 09:37:46;;;;;;;37.70;25.83;;;9.40;99.90;;;;;;4990680;28;20474;-68
2021/03/10 09:40:13;;;;;;;32.53;23.57;;;9.60;99.90;;;;;;4990572;28;20454;-68
2021/03/10 09:42:39;;;;;;;29.50;23.20;;;10.10;99.90;;;;;;4990985;28;20435;-68
2021/03/10 09:45:06;;;;;;;29.90;23.73;;;10.40;99.90;;;;;;4990296;28;20836;-68
2021/03/10 09:47:31;;;;;;;26.97;21.17;;;10.50;99.90;;;;;;4990811;28;20179;-68
2021/03/10 09:49:59;;;;;;;28.87;22.60;;;11.20;99.90;;;;;;4990775;28;20423;-68
2021/03/10 09:52:51;;;;;;;26.27;22.20;;;12.00;99.90;;;;;;4980282;28;20176;-68
2021/03/10 09:55:22;;;;;;;30.70;21.97;;;11.90;99.90;;;;;;4989176;28;20435;-68
2021/03/10 09:57:48;;;;;;;26.43;22.30;;;11.40;99.90;;;;;;4990058;28;20497;-68
2021/03/10 10:00:18;;;;;;;28.30;20.20;;;10.90;99.90;;;;;;4990304;28;20478;-68
2021/03/10 10:02:46;;;;;;;25.53;19.30;;;10.40;99.90;;;;;;4990936;28;20179;-67
2021/03/10 10:05:20;;;;;;;26.70;19.57;;;10.30;99.90;;;;;;4990353;28;20955;-68
2021/03/10 10:07:46;;;;;;;22.90;17.13;;;10.20;99.90;;;;;;4990470;28;20517;-68
2021/03/10 10:10:11;;;;;;;20.93;16.33;;;10.20;99.90;;;;;;4990537;28;21015;-68
2021/03/10 10:12:48;;;;;;;24.57;18.03;;;10.20;99.90;;;;;;4990760;28;20179;-68
2021/03/10 10:15:16;;;;;;;19.83;16.03;;;10.10;99.90;;;;;;4990367;28;20256;-68
2021/03/10 10:17:47;;;;;;;23.73;18.13;;;9.80;99.90;;;;;;4989274;28;20505;-68
2021/03/10 10:20:14;;;;;;;20.90;17.10;;;9.60;99.90;;;;;;4989443;28;20460;-68
2021/03/10 10:22:41;;;;;;;22.67;17.27;;;9.50;99.90;;;;;;4990287;28;20823;-67
2021/03/10 10:25:07;;;;;;;26.67;17.80;;;9.50;99.90;;;;;;4991181;28;20427;-67
2021/03/10 10:27:33;;;;;;;25.63;17.37;;;9.70;99.90;;;;;;5002238;28;20434;-68
2021/03/10 10:29:58;;;;;;;25.30;18.73;;;9.70;99.90;;;;;;4996685;28;20461;-68
2021/03/10 10:32:24;;;;;;;24.30;18.80;;;9.50;99.90;;;;;;4997166;28;20333;-68
2021/03/10 10:34:50;;;;;;;21.87;18.80;;;9.50;99.90;;;;;;4996511;28;20182;-68
2021/03/10 10:37:17;;;;;;;25.03;19.40;;;9.50;99.90;;;;;;4996941;28;20202;-68
2021/03/10 10:39:43;;;;;;;22.80;17.47;;;9.50;99.90;;;;;;4997087;28;20213;-68
2021/03/10 10:42:09;;;;;;;19.87;16.07;;;9.40;99.90;;;;;;4996550;28;20811;-67
2021/03/10 10:44:34;;;;;;;21.37;14.17;;;9.30;99.90;;;;;;4996675;28;20430;-68
2021/03/10 10:47:00;;;;;;;17.57;13.57;;;9.50;99.90;;;;;;4997007;28;20175;-68
2021/03/10 10:49:25;;;;;;;24.80;18.17;;;9.40;99.90;;;;;;4997224;28;20176;-68
2021/03/10 10:51:51;;;;;;;16.10;12.43;;;9.90;99.90;;;;;;4996725;28;20218;-68
2021/03/10 10:54:16;;;;;;;8.37;6.77;;;10.10;99.90;;;;;;4996101;28;20186;-68
2021/03/10 10:56:42;;;;;;;8.63;7.03;;;10.90;99.20;;;;;;4997341;28;20222;-68
2021/03/10 10:59:07;;;;;;;7.97;5.90;;;11.80;96.50;;;;;;4996882;28;20186;-68
2021/03/10 11:01:33;;;;;;;6.43;5.47;;;12.60;92.40;;;;;;4995658;28;20191;-68
2021/03/10 11:03:59;;;;;;;7.13;4.67;;;13.30;85.00;;;;;;4996758;28;20227;-68
2021/03/10 11:06:24;;;;;;;6.37;5.70;;;14.00;81.00;;;;;;4996379;28;20420;-67
2021/03/10 11:08:50;;;;;;;5.73;4.70;;;14.00;76.10;;;;;;4996789;28;20201;-68
2021/03/10 11:11:15;;;;;;;5.60;4.80;;;13.30;75.00;;;;;;4995497;28;20199;-68
2021/03/10 11:13:41;;;;;;;6.30;4.80;;;12.90;76.20;;;;;;4996681;28;20183;-68
2021/03/10 11:16:06;;;;;;;6.30;5.70;;;12.50;77.70;;;;;;4997106;28;20258;-69
2021/03/10 11:18:32;;;;;;;7.80;5.57;;;12.40;79.10;;;;;;4996844;28;20195;-68
2021/03/10 11:20:57;;;;;;;6.60;5.90;;;12.70;78.50;;;;;;4996990;28;20192;-71
2021/03/10 11:23:23;;;;;;;6.90;6.20;;;12.50;78.60;;;;;;4996551;28;20191;-67
2021/03/10 11:25:48;;;;;;;5.73;5.10;;;12.40;78.40;;;;;;4996621;28;20234;-67
2021/03/10 11:28:14;;;;;;;6.17;5.47;;;13.00;77.40;;;;;;4996492;28;20193;-68
2021/03/10 11:30:39;;;;;;;8.30;5.60;;;13.30;75.10;;;;;;4996424;28;20196;-68
2021/03/10 11:33:05;;;;;;;6.97;6.10;;;12.90;74.10;;;;;;4996667;28;20186;-68
2021/03/10 11:35:31;;;;;;;8.67;5.93;;;12.50;76.20;;;;;;4996290;28;20187;-68
2021/03/10 11:37:56;;;;;;;6.90;5.50;;;11.90;77.60;;;;;;4993767;28;20298;-68
2021/03/10 11:40:22;;;;;;;8.60;6.70;;;11.60;78.80;;;;;;4993515;28;20207;-67
2021/03/10 11:42:47;;;;;;;5.83;5.00;;;11.50;79.30;;;;;;4993716;28;20187;-68
2021/03/10 11:45:13;;;;;;;6.63;5.83;;;11.60;79.10;;;;;;4991866;28;20167;-68
2021/03/10 11:47:40;;;;;;;6.07;5.20;;;11.40;78.90;;;;;;4993479;28;20555;-68
2021/03/10 11:50:06;;;;;;;5.90;5.30;;;11.10;80.30;;;;;;4993076;28;20509;-68
2021/03/10 11:52:32;;;;;;;6.30;5.60;;;11.20;80.40;;;;;;4993066;28;20534;-68
2021/03/10 11:54:58;;;;;;;7.37;6.00;;;11.20;80.30;;;;;;4992812;28;20537;-68
2021/03/10 11:57:23;;;;;;;7.20;5.60;;;11.00;80.60;;;;;;4992674;28;20687;-68
2021/03/10 11:59:49;;;;;;;5.20;4.70;;;11.10;81.30;;;;;;4993111;28;20164;-68
2021/03/10 12:02:14;;;;;;;5.27;4.77;;;11.20;79.90;;;;;;4993236;28;20180;-68
2021/03/10 12:04:40;;;;;;;6.10;5.17;;;11.20;80.80;;;;;;4992231;28;20180;-66
2021/03/10 12:07:06;;;;;;;7.10;6.40;;;11.30;81.60;;;;;;4993164;28;20191;-66
2021/03/10 12:09:32;;;;;;;8.20;6.80;;;11.30;81.80;;;;;;4993092;28;20258;-66
2021/03/10 12:11:58;;;;;;;6.73;6.13;;;11.20;80.70;;;;;;4992536;28;20597;-66
2021/03/10 12:14:24;;;;;;;5.83;5.33;;;11.10;81.30;;;;;;4992062;28;20439;-67
2021/03/10 12:16:50;;;;;;;9.37;6.43;;;11.30;81.20;;;;;;4992981;28;20176;-66
2021/03/10 12:19:16;;;;;;;10.57;9.10;;;11.50;80.60;;;;;;4992270;28;20964;-66
2021/03/10 12:21:41;;;;;;;8.13;6.50;;;11.60;80.60;;;;;;4992533;28;20486;-66
2021/03/10 12:24:08;;;;;;;6.20;5.20;;;11.80;80.30;;;;;;4991769;28;20625;-66
2021/03/10 12:26:33;;;;;;;6.27;5.40;;;12.10;79.10;;;;;;4992536;28;20745;-66
2021/03/10 12:29:00;;;;;;;7.20;6.37;;;12.30;76.20;;;;;;4992379;28;20526;-67
2021/03/10 12:31:26;;;;;;;6.63;6.00;;;12.50;74.80;;;;;;4998387;28;20211;-67
2021/03/10 12:33:51;;;;;;;6.17;5.33;;;13.40;73.70;;;;;;4992037;28;20442;-66
2021/03/10 12:36:17;;;;;;;7.33;5.77;;;13.70;72.40;;;;;;4992929;28;20434;-66
2021/03/10 12:38:42;;;;;;;6.40;5.80;;;14.50;69.20;;;;;;4992980;28;20249;-66
2021/03/10 12:41:08;;;;;;;7.40;6.70;;;15.10;64.20;;;;;;4992521;28;20211;-66